Time;durP1;ratioP1;P1;durP2;ratioP2;P2;SDS_P1;SDS_P2;PMS_P1;PMS_P2;Temp;Humidity;BMP_temperature;BMP_pressure;BME280_temperature;BME280_humidity;BME280_pressure;Samples;Min_cycle;Max_cycle;Signal;HPM_P1;HPM_P2
2023/05/21 00:01:15;;;;;;;0.93;0.73;;;16.60;99.90;;;;;;4397279;32;20073;-63
2023/05/21 00:03:41;;;;;;;0.60;0.60;;;16.60;99.90;;;;;;4397066;32;20120;-61
2023/05/21 00:06:07;;;;;;;1.25;1.10;;;16.60;99.90;;;;;;4383652;32;20845;-62
2023/05/21 00:08:33;;;;;;;2.40;1.10;;;16.50;99.90;;;;;;4399325;32;20136;-64
2023/05/21 00:10:58;;;;;;;0.50;0.50;;;16.60;99.90;;;;;;4398470;32;20144;-63
2023/05/21 00:13:24;;;;;;;1.35;1.00;;;16.50;99.90;;;;;;4401752;32;20139;-61
2023/05/21 00:15:49;;;;;;;1.75;1.50;;;16.50;99.90;;;;;;4400948;32;20546;-61
2023/05/21 00:18:15;;;;;;;0.52;0.52;;;16.50;99.90;;;;;;4385444;32;20061;-62
2023/05/21 00:20:40;;;;;;;2.10;1.02;;;16.50;99.90;;;;;;4399706;32;20137;-62
2023/05/21 00:23:06;;;;;;;1.48;1.17;;;16.50;99.90;;;;;;4401075;32;20148;-62
2023/05/21 00:25:32;;;;;;;0.40;0.40;;;16.50;99.90;;;;;;4402236;32;20117;-61
2023/05/21 00:27:57;;;;;;;0.93;0.90;;;16.40;99.90;;;;;;4398834;32;20066;-62
2023/05/21 00:30:23;;;;;;;1.40;0.80;;;16.30;99.90;;;;;;4382364;32;20149;-61
2023/05/21 00:32:48;;;;;;;1.02;0.93;;;16.30;99.90;;;;;;4398428;32;20180;-61
2023/05/21 00:35:14;;;;;;;1.15;0.75;;;16.30;99.90;;;;;;4399742;32;20110;-61
2023/05/21 00:37:39;;;;;;;3.87;1.37;;;16.20;99.90;;;;;;4399125;32;20093;-61
2023/05/21 00:40:07;;;;;;;0.70;0.68;;;16.20;99.90;;;;;;4403203;32;20081;-61
2023/05/21 00:42:38;;;;;;;0.73;0.73;;;16.20;99.90;;;;;;4397761;32;20537;-61
2023/05/21 00:45:04;;;;;;;1.90;1.10;;;16.20;99.90;;;;;;4397961;32;20514;-63
2023/05/21 00:47:30;;;;;;;0.70;0.70;;;16.20;99.90;;;;;;4395752;32;20082;-64
2023/05/21 00:49:55;;;;;;;1.08;1.00;;;16.10;99.90;;;;;;4396666;32;20534;-62
2023/05/21 00:52:21;;;;;;;0.90;0.85;;;16.10;99.90;;;;;;4396908;32;20090;-63
2023/05/21 00:54:48;;;;;;;1.10;0.95;;;16.10;99.90;;;;;;4396891;32;20085;-61
2023/05/21 00:57:19;;;;;;;1.55;1.42;;;16.10;99.90;;;;;;4397652;32;20465;-63
2023/05/21 00:59:45;;;;;;;0.85;0.80;;;16.10;99.90;;;;;;4386202;32;20070;-61
2023/05/21 01:02:13;;;;;;;4.12;2.00;;;16.00;99.90;;;;;;4396207;32;20078;-62
2023/05/21 01:04:38;;;;;;;1.85;1.15;;;16.00;99.90;;;;;;4398131;32;20150;-61
2023/05/21 01:07:05;;;;;;;2.03;0.85;;;16.00;99.90;;;;;;4383227;32;20090;-61
2023/05/21 01:09:30;;;;;;;1.12;0.88;;;16.00;99.90;;;;;;4397015;32;20094;-61
2023/05/21 01:11:56;;;;;;;1.60;0.80;;;16.00;99.90;;;;;;4395153;32;20131;-62
2023/05/21 01:14:23;;;;;;;1.02;0.98;;;15.90;99.90;;;;;;4394027;32;20092;-63
2023/05/21 01:16:49;;;;;;;0.77;0.70;;;15.90;99.90;;;;;;4393956;32;20371;-61
2023/05/21 01:19:17;;;;;;;4.00;1.35;;;15.90;99.90;;;;;;4396896;32;20830;-62
2023/05/21 01:21:45;;;;;;;8.82;4.43;;;15.80;99.90;;;;;;4381661;32;20431;-63
2023/05/21 01:24:11;;;;;;;2.08;0.95;;;15.80;99.90;;;;;;4397041;32;20085;-63
2023/05/21 01:26:37;;;;;;;7.22;1.27;;;15.80;99.90;;;;;;4398416;32;20081;-61
2023/05/21 01:29:05;;;;;;;0.50;0.50;;;15.80;99.90;;;;;;4399190;32;20086;-62
2023/05/21 01:31:39;;;;;;;1.00;0.80;;;15.80;99.90;;;;;;4383270;32;20086;-61
2023/05/21 01:34:09;;;;;;;9.27;1.20;;;15.80;99.90;;;;;;4384077;32;20070;-62
2023/05/21 01:36:41;;;;;;;2.53;1.12;;;15.80;99.90;;;;;;4396595;32;20104;-63
2023/05/21 01:39:17;;;;;;;2.72;0.88;;;15.80;99.90;;;;;;4397844;32;20109;-61
2023/05/21 01:41:46;;;;;;;0.82;0.82;;;15.70;99.90;;;;;;4397600;32;20090;-64
2023/05/21 01:44:13;;;;;;;0.75;0.73;;;15.80;99.90;;;;;;4385428;32;20127;-62
2023/05/21 01:46:39;;;;;;;1.20;0.70;;;15.70;99.90;;;;;;4383395;32;20140;-62
2023/05/21 01:49:06;;;;;;;5.12;1.80;;;15.70;99.90;;;;;;4396852;32;20089;-62
2023/05/21 01:51:32;;;;;;;1.00;0.60;;;15.70;99.90;;;;;;4384091;32;20094;-63
2023/05/21 01:53:58;;;;;;;2.05;0.80;;;15.70;99.90;;;;;;4393826;32;20082;-62
2023/05/21 01:56:24;;;;;;;0.77;0.77;;;15.60;99.90;;;;;;4396248;32;20089;-62
2023/05/21 01:58:50;;;;;;;4.37;0.90;;;15.60;99.90;;;;;;4383072;32;20166;-62
2023/05/21 02:01:16;;;;;;;2.83;0.80;;;15.60;99.90;;;;;;4396867;32;20151;-61
2023/05/21 02:03:41;;;;;;;1.77;1.15;;;15.60;99.90;;;;;;4394094;32;20082;-62
2023/05/21 02:06:07;;;;;;;3.10;1.55;;;15.60;99.90;;;;;;4396712;32;20531;-65
2023/05/21 02:08:32;;;;;;;1.50;0.90;;;15.60;99.90;;;;;;4397945;32;20089;-61
2023/05/21 02:10:57;;;;;;;1.12;0.80;;;15.50;99.90;;;;;;4398242;32;20110;-62
2023/05/21 02:13:23;;;;;;;1.23;1.02;;;15.50;99.90;;;;;;4397667;32;20069;-62
2023/05/21 02:15:50;;;;;;;1.90;0.93;;;15.50;99.90;;;;;;4397680;32;20118;-62
2023/05/21 02:18:17;;;;;;;5.12;1.23;;;15.50;99.90;;;;;;4381334;32;20117;-61
2023/05/21 02:20:43;;;;;;;0.70;0.70;;;15.40;99.90;;;;;;4395795;32;20094;-61
2023/05/21 02:23:08;;;;;;;1.05;0.93;;;15.40;99.90;;;;;;4396335;32;20106;-62
2023/05/21 02:25:34;;;;;;;1.95;0.95;;;15.40;99.90;;;;;;4396295;32;20057;-63
2023/05/21 02:27:59;;;;;;;3.70;1.15;;;15.50;99.90;;;;;;4395914;32;20077;-62
2023/05/21 02:30:25;;;;;;;0.95;0.90;;;15.40;99.90;;;;;;4398092;32;20098;-62
2023/05/21 02:32:51;;;;;;;1.10;1.00;;;15.40;99.90;;;;;;4395833;32;20145;-63
2023/05/21 02:35:17;;;;;;;2.05;1.20;;;15.40;99.90;;;;;;4395442;32;20557;-65
2023/05/21 02:37:43;;;;;;;4.28;1.20;;;15.30;99.90;;;;;;4383824;32;20112;-63
2023/05/21 02:40:10;;;;;;;1.75;1.15;;;15.40;99.90;;;;;;4398412;32;20172;-65
2023/05/21 02:42:38;;;;;;;1.08;0.98;;;15.40;99.90;;;;;;4395726;32;20121;-61
2023/05/21 02:45:05;;;;;;;0.80;0.80;;;15.30;99.90;;;;;;4382320;32;20619;-61
2023/05/21 02:47:31;;;;;;;0.75;0.75;;;15.30;99.90;;;;;;4384016;32;20093;-63
2023/05/21 02:49:58;;;;;;;0.98;0.80;;;15.30;99.90;;;;;;4395736;32;20094;-63
2023/05/21 02:52:23;;;;;;;0.75;0.75;;;15.30;99.90;;;;;;4397107;32;20889;-62
2023/05/21 02:54:50;;;;;;;2.70;1.33;;;15.30;99.90;;;;;;4397510;32;20105;-63
2023/05/21 02:57:17;;;;;;;2.10;1.58;;;15.20;99.90;;;;;;4382638;32;20577;-61
2023/05/21 02:59:42;;;;;;;0.77;0.77;;;15.20;99.90;;;;;;4396215;32;20086;-62
2023/05/21 03:02:08;;;;;;;2.00;1.48;;;15.20;99.90;;;;;;4395712;32;20095;-61
2023/05/21 03:04:37;;;;;;;0.75;0.75;;;15.10;99.90;;;;;;4396006;32;20097;-64
2023/05/21 03:07:03;;;;;;;1.90;1.27;;;15.20;99.90;;;;;;4395073;32;20205;-62
2023/05/21 03:09:29;;;;;;;2.28;1.15;;;15.20;99.90;;;;;;4381541;32;20129;-61
2023/05/21 03:11:54;;;;;;;1.55;1.12;;;15.10;99.90;;;;;;4397193;32;20135;-61
2023/05/21 03:14:20;;;;;;;2.95;1.20;;;15.20;99.90;;;;;;4394450;32;20057;-63
2023/05/21 03:16:46;;;;;;;1.08;1.02;;;15.20;99.90;;;;;;4399476;32;20542;-61
2023/05/21 03:19:12;;;;;;;1.58;1.35;;;15.20;99.90;;;;;;4394485;32;20494;-61
2023/05/21 03:21:37;;;;;;;0.82;0.82;;;15.10;99.90;;;;;;4395996;32;20102;-62
2023/05/21 03:24:04;;;;;;;2.95;1.27;;;15.10;99.90;;;;;;4395017;32;20093;-61
2023/05/21 03:26:30;;;;;;;9.77;1.05;;;15.10;99.90;;;;;;4397588;32;20086;-63
2023/05/21 03:28:56;;;;;;;2.10;1.20;;;15.10;99.90;;;;;;4394047;32;20549;-61
2023/05/21 03:31:23;;;;;;;1.30;1.12;;;15.10;99.90;;;;;;4395217;32;20543;-62
2023/05/21 03:33:48;;;;;;;0.60;0.57;;;15.10;99.90;;;;;;4395127;32;20136;-64
2023/05/21 03:36:14;;;;;;;2.67;1.40;;;15.10;99.90;;;;;;4396863;32;20443;-62
2023/05/21 03:38:39;;;;;;;9.32;1.67;;;15.10;99.90;;;;;;4401160;32;20073;-62
2023/05/21 03:41:06;;;;;;;0.65;0.65;;;15.10;99.90;;;;;;4396878;32;20090;-62
2023/05/21 03:43:32;;;;;;;1.65;1.08;;;15.10;99.90;;;;;;4398302;32;20084;-63
2023/05/21 03:45:57;;;;;;;1.33;1.23;;;15.10;99.90;;;;;;4395612;32;20162;-61
2023/05/21 03:48:23;;;;;;;1.33;1.23;;;15.10;99.90;;;;;;4399952;32;20094;-63
2023/05/21 03:50:48;;;;;;;2.65;1.45;;;15.10;99.90;;;;;;4401361;32;20078;-61
2023/05/21 03:53:14;;;;;;;1.90;0.90;;;15.10;99.90;;;;;;4397394;32;20140;-63
2023/05/21 03:55:39;;;;;;;1.92;1.37;;;15.10;99.90;;;;;;4397191;32;20605;-61
2023/05/21 03:58:05;;;;;;;2.85;1.42;;;15.20;99.90;;;;;;4397374;32;20062;-62
2023/05/21 04:00:31;;;;;;;4.82;1.20;;;15.10;99.90;;;;;;4396109;32;20250;-62
2023/05/21 04:02:57;;;;;;;1.85;1.20;;;15.10;99.90;;;;;;4396774;32;20094;-61
2023/05/21 04:05:23;;;;;;;4.22;1.30;;;15.20;99.90;;;;;;4397236;32;20069;-61
2023/05/21 04:07:48;;;;;;;6.12;1.23;;;15.20;99.90;;;;;;4396529;32;20085;-61
2023/05/21 04:10:14;;;;;;;1.58;1.30;;;15.20;99.90;;;;;;4396257;32;20095;-61
2023/05/21 04:12:40;;;;;;;1.20;0.88;;;15.20;99.90;;;;;;4399001;32;20085;-64
2023/05/21 04:15:06;;;;;;;0.62;0.62;;;15.20;99.90;;;;;;4399345;32;20069;-61
2023/05/21 04:17:32;;;;;;;1.42;0.88;;;15.30;99.90;;;;;;4399195;32;20506;-63
2023/05/21 04:19:57;;;;;;;1.90;1.10;;;15.30;99.90;;;;;;4398457;32;20098;-63
2023/05/21 04:22:25;;;;;;;3.47;1.30;;;15.30;99.90;;;;;;4384063;32;20062;-61
2023/05/21 04:24:51;;;;;;;2.70;1.48;;;15.40;99.90;;;;;;4384523;32;20065;-61
2023/05/21 04:27:16;;;;;;;3.70;1.50;;;15.40;99.90;;;;;;4383536;32;20086;-61
2023/05/21 04:29:42;;;;;;;3.87;1.30;;;15.50;99.90;;;;;;4398822;32;20090;-63
2023/05/21 04:32:08;;;;;;;2.40;1.42;;;15.50;99.90;;;;;;4396787;32;20833;-62
2023/05/21 04:34:33;;;;;;;1.60;1.10;;;15.50;99.90;;;;;;4395536;32;20183;-61
2023/05/21 04:37:00;;;;;;;1.92;1.35;;;15.60;99.90;;;;;;4399228;32;20078;-63
2023/05/21 04:39:27;;;;;;;4.15;1.00;;;15.60;99.90;;;;;;4398472;32;20514;-61
2023/05/21 04:41:53;;;;;;;4.55;1.37;;;15.70;99.90;;;;;;4396615;32;20499;-63
2023/05/21 04:44:19;;;;;;;1.40;1.20;;;15.70;99.90;;;;;;4396867;32;20089;-63
2023/05/21 04:46:44;;;;;;;2.97;1.23;;;15.70;99.90;;;;;;4397427;32;20141;-61
2023/05/21 04:49:10;;;;;;;1.67;1.12;;;15.80;99.90;;;;;;4396453;32;20110;-62
2023/05/21 04:51:36;;;;;;;0.93;0.88;;;15.90;99.90;;;;;;4385354;32;20125;-64
2023/05/21 04:54:02;;;;;;;1.20;1.08;;;16.00;99.90;;;;;;4396702;32;20144;-61
2023/05/21 04:56:28;;;;;;;1.87;1.10;;;16.00;99.90;;;;;;4398885;32;20062;-64
2023/05/21 04:58:54;;;;;;;17.17;3.40;;;16.00;99.90;;;;;;4396317;32;20109;-61
2023/05/21 05:01:24;;;;;;;1.27;0.98;;;16.10;99.90;;;;;;4398557;32;20089;-63
2023/05/21 05:03:50;;;;;;;2.40;1.20;;;16.10;99.90;;;;;;4394556;32;20435;-61
2023/05/21 05:06:16;;;;;;;4.28;1.52;;;16.20;99.90;;;;;;4397544;32;20078;-61
2023/05/21 05:08:41;;;;;;;3.85;0.90;;;16.20;99.90;;;;;;4395944;32;20066;-62
2023/05/21 05:11:07;;;;;;;2.10;1.00;;;16.20;99.90;;;;;;4396303;32;20082;-61
2023/05/21 05:13:33;;;;;;;2.92;1.55;;;16.30;99.90;;;;;;4395695;32;20086;-61
2023/05/21 05:15:59;;;;;;;1.60;1.10;;;16.40;99.90;;;;;;4397376;32;20141;-63
2023/05/21 05:18:25;;;;;;;1.85;0.77;;;16.40;99.90;;;;;;4395996;32;20486;-62
2023/05/21 05:20:50;;;;;;;2.35;1.00;;;16.50;99.90;;;;;;4395668;32;20342;-63
2023/05/21 05:23:16;;;;;;;1.58;1.10;;;16.60;99.90;;;;;;4394961;32;20093;-64
2023/05/21 05:25:41;;;;;;;3.58;1.00;;;16.60;99.90;;;;;;4396613;32;20184;-61
2023/05/21 05:28:07;;;;;;;2.10;1.70;;;16.70;99.90;;;;;;4381492;32;20530;-62
2023/05/21 05:30:32;;;;;;;2.53;1.05;;;16.80;99.90;;;;;;4398123;32;20509;-62
2023/05/21 05:32:58;;;;;;;3.72;1.70;;;16.90;99.90;;;;;;4397669;32;20099;-63
2023/05/21 05:35:23;;;;;;;6.07;2.03;;;16.90;99.90;;;;;;4397343;32;20085;-61
2023/05/21 05:37:49;;;;;;;5.57;1.00;;;17.00;99.90;;;;;;4395992;32;20125;-62
2023/05/21 05:40:14;;;;;;;4.37;1.33;;;17.10;99.90;;;;;;4399288;32;20073;-64
2023/05/21 05:42:41;;;;;;;1.10;1.00;;;17.10;99.90;;;;;;4385153;32;20545;-63
2023/05/21 05:45:07;;;;;;;1.70;1.25;;;17.10;99.90;;;;;;4396587;32;20114;-64
2023/05/21 05:47:32;;;;;;;1.65;1.10;;;17.20;99.90;;;;;;4397306;32;20093;-63
2023/05/21 05:49:58;;;;;;;0.77;0.77;;;17.20;99.90;;;;;;4396516;32;20074;-62
2023/05/21 05:52:23;;;;;;;0.62;0.62;;;17.20;99.90;;;;;;4397556;32;20569;-62
2023/05/21 05:54:49;;;;;;;1.92;1.37;;;17.30;99.90;;;;;;4396375;32;20596;-64
2023/05/21 05:57:14;;;;;;;0.98;0.85;;;17.40;99.90;;;;;;4393145;32;20155;-65
2023/05/21 05:59:40;;;;;;;4.20;1.08;;;17.40;99.90;;;;;;4397987;32;20090;-65
2023/05/21 06:02:05;;;;;;;1.15;1.05;;;17.50;99.90;;;;;;4396665;32;20120;-64
2023/05/21 06:04:31;;;;;;;1.15;1.05;;;17.50;99.90;;;;;;4393688;32;20140;-65
2023/05/21 06:06:57;;;;;;;0.73;0.73;;;17.60;99.90;;;;;;4396672;32;20145;-65
2023/05/21 06:09:23;;;;;;;1.77;0.93;;;17.50;99.90;;;;;;4396746;32;20082;-65
2023/05/21 06:11:49;;;;;;;3.03;1.37;;;17.60;99.90;;;;;;4381818;32;20081;-64
2023/05/21 06:14:14;;;;;;;2.87;1.23;;;17.60;99.90;;;;;;4379201;32;20101;-65
2023/05/21 06:16:40;;;;;;;1.23;1.08;;;17.60;99.90;;;;;;4396969;32;20109;-65
2023/05/21 06:19:05;;;;;;;1.95;1.10;;;17.60;99.90;;;;;;4396861;32;20642;-64
2023/05/21 06:21:31;;;;;;;1.77;1.00;;;17.60;99.90;;;;;;4382972;32;20077;-65
2023/05/21 06:23:56;;;;;;;5.82;1.35;;;17.60;99.90;;;;;;4382842;32;20809;-65
2023/05/21 06:26:22;;;;;;;2.12;1.17;;;17.70;99.90;;;;;;4396256;32;20066;-65
2023/05/21 06:28:48;;;;;;;1.30;1.20;;;17.70;99.90;;;;;;4399129;32;20144;-64
2023/05/21 06:31:13;;;;;;;1.50;0.80;;;17.70;99.90;;;;;;4383499;32;20081;-64
2023/05/21 06:33:39;;;;;;;1.50;0.98;;;17.70;99.90;;;;;;4396206;32;20086;-64
2023/05/21 06:36:05;;;;;;;1.30;0.90;;;17.70;99.90;;;;;;4397749;32;20145;-65
2023/05/21 06:38:30;;;;;;;1.00;0.90;;;17.70;99.90;;;;;;4397313;32;20089;-65
2023/05/21 06:40:57;;;;;;;2.50;1.37;;;17.80;99.90;;;;;;4394004;32;20102;-65
2023/05/21 06:43:23;;;;;;;1.12;1.08;;;17.80;99.90;;;;;;4393992;32;20128;-64
2023/05/21 06:45:48;;;;;;;1.17;0.90;;;17.90;99.90;;;;;;4381859;32;20110;-65
2023/05/21 06:48:15;;;;;;;1.60;1.08;;;17.90;99.90;;;;;;4396240;32;20097;-65
2023/05/21 06:50:41;;;;;;;3.35;0.98;;;17.90;99.90;;;;;;4395556;32;20253;-65
2023/05/21 06:53:07;;;;;;;2.53;1.33;;;18.00;99.90;;;;;;4391905;32;20130;-65
2023/05/21 06:55:32;;;;;;;2.37;1.10;;;18.00;99.90;;;;;;4395176;32;20070;-65
2023/05/21 06:57:58;;;;;;;4.12;0.93;;;18.10;99.90;;;;;;4396738;32;20132;-65
2023/05/21 07:00:23;;;;;;;4.05;1.65;;;18.10;99.90;;;;;;4395580;32;20085;-65
2023/05/21 07:02:49;;;;;;;0.98;0.98;;;18.20;99.90;;;;;;4394453;32;20082;-64
2023/05/21 07:05:14;;;;;;;0.75;0.75;;;18.30;99.90;;;;;;4392602;32;20070;-64
2023/05/21 07:07:40;;;;;;;0.77;0.60;;;18.40;99.90;;;;;;4389646;32;20921;-65
2023/05/21 07:10:07;;;;;;;1.25;1.10;;;18.50;99.90;;;;;;4396498;32;21154;-65
2023/05/21 07:12:32;;;;;;;5.05;1.65;;;18.70;99.90;;;;;;4394348;32;20427;-65
2023/05/21 07:14:58;;;;;;;2.55;1.83;;;18.80;99.90;;;;;;4382526;32;20149;-65
2023/05/21 07:17:23;;;;;;;1.67;1.40;;;18.90;99.90;;;;;;4397542;32;20075;-65
2023/05/21 07:19:49;;;;;;;0.70;0.70;;;19.00;99.90;;;;;;4395133;32;20093;-64
2023/05/21 07:22:14;;;;;;;0.80;0.80;;;19.20;99.90;;;;;;4398325;32;20263;-65
2023/05/21 07:24:40;;;;;;;0.95;0.95;;;19.30;99.90;;;;;;4395953;32;20089;-65
2023/05/21 07:27:05;;;;;;;3.37;1.45;;;19.40;99.90;;;;;;4396501;32;20074;-65
2023/05/21 07:29:32;;;;;;;2.65;1.42;;;19.50;99.90;;;;;;4400114;32;20069;-65
2023/05/21 07:31:58;;;;;;;0.75;0.75;;;19.70;99.90;;;;;;4398268;32;20114;-65
2023/05/21 07:34:24;;;;;;;2.62;0.95;;;19.80;99.90;;;;;;4397601;32;20097;-65
2023/05/21 07:36:49;;;;;;;1.50;1.12;;;19.90;99.90;;;;;;4397420;32;20090;-65
2023/05/21 07:39:15;;;;;;;1.50;0.93;;;20.00;99.90;;;;;;4398816;32;20148;-65
2023/05/21 07:41:40;;;;;;;2.53;1.00;;;20.00;99.90;;;;;;4399802;32;20120;-65
2023/05/21 07:44:06;;;;;;;1.30;0.90;;;20.10;99.90;;;;;;4398348;32;20081;-65
2023/05/21 07:46:31;;;;;;;0.55;0.55;;;20.20;99.90;;;;;;4385051;32;20073;-65
2023/05/21 07:48:56;;;;;;;1.70;1.25;;;20.40;99.90;;;;;;4396024;32;20069;-65
2023/05/21 07:51:22;;;;;;;1.73;1.10;;;20.60;99.90;;;;;;4397940;32;20100;-64
2023/05/21 07:53:48;;;;;;;1.52;1.20;;;20.70;99.90;;;;;;4394270;32;20109;-65
2023/05/21 07:56:13;;;;;;;1.55;0.85;;;20.80;99.90;;;;;;4396718;32;20149;-65
2023/05/21 07:58:39;;;;;;;0.88;0.85;;;20.90;99.90;;;;;;4397655;32;20119;-64
2023/05/21 08:01:05;;;;;;;0.70;0.70;;;21.00;99.90;;;;;;4395620;32;20084;-64
2023/05/21 08:03:30;;;;;;;3.33;1.12;;;21.10;99.90;;;;;;4395394;32;20094;-65
2023/05/21 08:05:56;;;;;;;3.12;1.05;;;21.30;99.90;;;;;;4396144;32;20532;-65
2023/05/21 08:08:22;;;;;;;0.85;0.85;;;21.40;99.90;;;;;;4396622;32;20339;-64
2023/05/21 08:10:47;;;;;;;3.28;1.52;;;21.60;99.90;;;;;;4396422;32;20600;-64
2023/05/21 08:13:15;;;;;;;0.75;0.40;;;21.70;99.90;;;;;;4396795;32;20134;-65
2023/05/21 08:15:40;;;;;;;1.33;1.10;;;21.80;99.90;;;;;;4383205;32;20090;-64
2023/05/21 08:18:06;;;;;;;0.85;0.77;;;21.90;99.90;;;;;;4396422;32;20085;-64
2023/05/21 08:20:32;;;;;;;1.85;0.90;;;21.90;99.90;;;;;;4398918;32;20093;-64
2023/05/21 08:22:59;;;;;;;0.80;0.60;;;22.00;99.90;;;;;;4398485;32;20435;-65
2023/05/21 08:25:24;;;;;;;2.05;0.60;;;21.90;99.90;;;;;;4397820;32;20085;-65
2023/05/21 08:27:50;;;;;;;0.65;0.65;;;21.90;99.90;;;;;;4396645;32;20097;-65
2023/05/21 08:30:16;;;;;;;1.50;0.80;;;21.90;99.90;;;;;;4396146;32;20092;-65
2023/05/21 08:32:42;;;;;;;1.55;1.12;;;21.90;99.90;;;;;;4385285;32;20105;-64
2023/05/21 08:35:08;;;;;;;0.93;0.60;;;22.00;99.90;;;;;;4397660;32;20161;-65
2023/05/21 08:37:34;;;;;;;0.68;0.68;;;22.00;99.90;;;;;;4396417;32;20093;-64
2023/05/21 08:39:59;;;;;;;1.55;0.95;;;22.20;99.90;;;;;;4383825;32;20114;-64
2023/05/21 08:42:37;;;;;;;0.50;0.50;;;22.40;99.90;;;;;;4397055;32;20094;-64
2023/05/21 08:45:05;;;;;;;0.88;0.70;;;22.50;99.90;;;;;;4383250;32;20269;-65
2023/05/21 08:47:34;;;;;;;0.65;0.65;;;22.70;99.90;;;;;;4396341;32;20387;-64
2023/05/21 08:50:03;;;;;;;0.95;0.77;;;22.70;99.90;;;;;;4382908;32;20109;-63
2023/05/21 08:52:30;;;;;;;5.30;1.62;;;22.90;99.90;;;;;;4398935;32;20470;-64
2023/05/21 08:54:57;;;;;;;1.62;0.90;;;22.90;99.90;;;;;;4396836;32;20086;-64
2023/05/21 08:57:24;;;;;;;1.15;0.47;;;23.00;99.90;;;;;;4396354;32;20086;-64
2023/05/21 08:59:49;;;;;;;0.35;0.35;;;23.00;99.90;;;;;;4396050;32;20065;-64
2023/05/21 09:02:17;;;;;;;2.22;1.27;;;23.00;99.90;;;;;;4396853;32;20435;-64
2023/05/21 09:04:48;;;;;;;1.37;0.95;;;23.00;99.90;;;;;;4395801;32;20085;-64
2023/05/21 09:07:14;;;;;;;3.28;1.20;;;23.10;99.90;;;;;;4383291;32;20236;-64
2023/05/21 09:09:48;;;;;;;6.32;2.03;;;23.20;99.90;;;;;;4397475;32;20852;-64
2023/05/21 09:12:13;;;;;;;0.50;0.50;;;23.30;99.90;;;;;;4395038;32;20106;-65
2023/05/21 09:14:41;;;;;;;1.08;0.80;;;23.40;99.90;;;;;;4396872;32;20090;-63
2023/05/21 09:17:06;;;;;;;1.50;0.80;;;23.50;99.90;;;;;;4396577;32;20149;-63
2023/05/21 09:19:32;;;;;;;0.65;0.65;;;23.60;99.90;;;;;;4396775;32;20745;-63
2023/05/21 09:22:02;;;;;;;1.85;0.80;;;23.80;99.90;;;;;;4397720;32;20086;-64
2023/05/21 09:24:30;;;;;;;0.50;0.50;;;24.00;99.90;;;;;;4384254;32;20110;-64
2023/05/21 09:26:58;;;;;;;0.93;0.90;;;24.10;99.90;;;;;;4396576;32;20900;-64
2023/05/21 09:29:25;;;;;;;0.85;0.60;;;24.20;99.90;;;;;;4383474;32;20089;-64
2023/05/21 09:31:50;;;;;;;0.60;0.60;;;24.20;99.90;;;;;;4382630;32;20105;-64
2023/05/21 09:34:16;;;;;;;0.57;0.57;;;24.20;99.90;;;;;;4382161;32;21371;-64
2023/05/21 09:36:42;;;;;;;1.25;0.88;;;24.10;99.90;;;;;;4398181;32;21229;-64
2023/05/21 09:39:10;;;;;;;1.30;1.00;;;24.10;99.90;;;;;;4371662;32;20081;-64
2023/05/21 09:41:36;;;;;;;0.50;0.50;;;24.30;99.90;;;;;;4398736;32;20101;-64
2023/05/21 09:44:02;;;;;;;0.47;0.47;;;24.40;99.90;;;;;;4394723;32;20082;-64
2023/05/21 09:46:38;;;;;;;2.15;1.02;;;24.60;99.90;;;;;;4394909;32;20126;-64
2023/05/21 09:49:03;;;;;;;0.52;0.47;;;24.80;99.90;;;;;;4395265;32;20081;-64
2023/05/21 09:51:30;;;;;;;0.55;0.55;;;24.80;99.90;;;;;;4394668;32;20366;-64
2023/05/21 09:53:56;;;;;;;0.30;0.25;;;24.70;99.90;;;;;;4394392;32;20656;-65
2023/05/21 09:56:24;;;;;;;0.50;0.50;;;24.80;99.90;;;;;;4396547;32;20093;-65
2023/05/21 09:58:55;;;;;;;0.47;0.47;;;24.90;99.90;;;;;;4396638;32;20528;-65
2023/05/21 10:01:22;;;;;;;0.43;0.43;;;25.00;99.90;;;;;;4384085;32;20148;-64
2023/05/21 10:03:55;;;;;;;0.73;0.57;;;25.00;99.90;;;;;;4395415;32;20066;-65
2023/05/21 10:06:27;;;;;;;4.10;1.37;;;25.20;99.90;;;;;;4394355;32;20086;-64
2023/05/21 10:08:55;;;;;;;1.42;0.80;;;25.40;99.90;;;;;;4395810;32;20430;-64
2023/05/21 10:11:23;;;;;;;0.30;0.30;;;25.70;99.90;;;;;;4382972;32;20880;-65
2023/05/21 10:13:55;;;;;;;1.05;0.85;;;25.80;99.90;;;;;;4396773;32;20086;-65
2023/05/21 10:16:21;;;;;;;1.20;0.80;;;25.90;99.90;;;;;;4396421;32;20066;-66
2023/05/21 10:18:48;;;;;;;2.90;1.20;;;26.00;99.90;;;;;;4397295;32;20085;-64
2023/05/21 10:21:14;;;;;;;0.30;0.30;;;26.20;99.90;;;;;;4397804;32;20268;-64
2023/05/21 10:23:41;;;;;;;0.35;0.35;;;26.60;99.90;;;;;;4394845;32;20089;-65
2023/05/21 10:26:07;;;;;;;0.80;0.45;;;26.60;99.80;;;;;;4396505;32;20124;-65
2023/05/21 10:28:35;;;;;;;0.65;0.50;;;26.60;99.10;;;;;;4397482;32;20096;-64
2023/05/21 10:31:01;;;;;;;1.12;0.52;;;26.70;99.10;;;;;;4382310;32;20132;-64
2023/05/21 10:33:28;;;;;;;1.80;1.15;;;26.80;98.30;;;;;;4383226;32;20109;-64
2023/05/21 10:35:56;;;;;;;0.82;0.65;;;27.10;97.90;;;;;;4394964;32;20086;-64
2023/05/21 10:38:23;;;;;;;0.25;0.25;;;27.30;96.90;;;;;;4397751;32;20439;-65
2023/05/21 10:40:49;;;;;;;0.40;0.40;;;27.30;96.10;;;;;;4395688;32;20121;-64
2023/05/21 10:43:31;;;;;;;0.28;0.28;;;27.20;95.40;;;;;;4395990;32;20093;-64
2023/05/21 10:46:36;;;;;;;0.17;0.17;;;27.20;95.90;;;;;;4397210;32;20097;-64
2023/05/21 10:49:24;;;;;;;0.08;0.08;;;27.20;95.50;;;;;;4389493;32;20109;-64
2023/05/21 10:52:04;;;;;;;0.50;0.50;;;27.50;94.70;;;;;;4397621;32;20153;-64
2023/05/21 10:54:56;;;;;;;0.90;0.32;;;27.50;95.40;;;;;;4398557;32;20081;-64
2023/05/21 10:57:43;;;;;;;0.30;0.30;;;27.30;94.40;;;;;;4387227;32;20531;-64
2023/05/21 11:00:11;;;;;;;0.30;0.30;;;27.30;94.70;;;;;;4401014;32;20097;-64
2023/05/21 11:02:37;;;;;;;0.20;0.20;;;27.20;94.70;;;;;;4400088;32;20444;-64
2023/05/21 11:05:03;;;;;;;0.88;0.50;;;27.20;94.90;;;;;;4404267;32;20082;-63
2023/05/21 11:07:52;;;;;;;6.53;1.15;;;27.10;94.40;;;;;;4396291;32;20118;-65
2023/05/21 11:10:39;;;;;;;0.30;0.30;;;27.00;94.60;;;;;;4381657;32;20121;-64
2023/05/21 11:13:14;;;;;;;0.60;0.45;;;26.90;94.60;;;;;;4385295;32;20147;-64
2023/05/21 11:16:01;;;;;;;0.30;0.30;;;27.00;95.20;;;;;;4384311;32;20486;-64
2023/05/21 11:18:45;;;;;;;0.65;0.65;;;27.10;94.60;;;;;;4373819;32;20521;-64
2023/05/21 11:21:16;;;;;;;0.30;0.30;;;27.30;94.60;;;;;;4394135;32;20105;-64
2023/05/21 11:24:05;;;;;;;0.50;0.50;;;27.50;94.10;;;;;;4383691;32;21274;-65
2023/05/21 11:26:54;;;;;;;0.40;0.40;;;27.80;93.90;;;;;;4384686;32;20152;-65
2023/05/21 11:29:19;;;;;;;0.30;0.30;;;28.20;93.60;;;;;;4388183;32;20090;-64
2023/05/21 11:31:46;;;;;;;0.82;0.70;;;28.50;93.60;;;;;;4396047;32;20544;-66
2023/05/21 11:34:38;;;;;;;0.62;0.30;;;28.70;92.30;;;;;;4385283;32;20489;-66
2023/05/21 11:37:23;;;;;;;0.77;0.68;;;28.70;92.10;;;;;;4386212;32;20094;-66
2023/05/21 11:39:50;;;;;;;0.57;0.52;;;29.20;91.70;;;;;;4396784;32;20082;-66
2023/05/21 11:42:33;;;;;;;0.20;0.20;;;29.50;91.30;;;;;;4398109;32;20074;-65
2023/05/21 11:45:01;;;;;;;1.33;1.02;;;29.70;91.10;;;;;;4349997;32;1090041;-66
2023/05/21 11:47:27;;;;;;;0.40;0.40;;;29.80;90.10;;;;;;4395891;32;20058;-66
2023/05/21 11:49:54;;;;;;;2.55;0.80;;;29.80;90.10;;;;;;4396502;32;20152;-65
2023/05/21 11:52:20;;;;;;;0.52;0.52;;;29.90;90.10;;;;;;4395008;32;20125;-63
2023/05/21 11:54:49;;;;;;;0.77;0.55;;;29.90;89.20;;;;;;4378700;32;20074;-64
2023/05/21 11:57:17;;;;;;;0.25;0.20;;;29.80;89.10;;;;;;4385684;32;20121;-65
2023/05/21 11:59:45;;;;;;;0.20;0.20;;;29.90;90.00;;;;;;4385710;32;20481;-64
2023/05/21 12:02:19;;;;;;;0.13;0.13;;;30.20;88.60;;;;;;4381721;32;20126;-64
2023/05/21 12:04:47;;;;;;;0.30;0.30;;;30.30;87.30;;;;;;4396590;32;20106;-64
2023/05/21 12:07:14;;;;;;;0.20;0.20;;;30.30;87.30;;;;;;4378494;32;20475;-64
2023/05/21 12:09:42;;;;;;;0.88;0.82;;;30.30;86.70;;;;;;4371746;32;20511;-65
2023/05/21 12:12:08;;;;;;;0.43;0.40;;;30.10;86.00;;;;;;4395329;32;20093;-65
2023/05/21 12:14:35;;;;;;;1.85;1.15;;;30.20;87.50;;;;;;4397425;32;20138;-65
2023/05/21 12:17:02;;;;;;;1.98;0.90;;;30.10;86.30;;;;;;4371447;32;20092;-65
2023/05/21 12:19:30;;;;;;;0.30;0.30;;;30.10;86.50;;;;;;4395722;32;20070;-64
2023/05/21 12:21:58;;;;;;;0.20;0.20;;;30.30;86.30;;;;;;4394020;32;20085;-64
2023/05/21 12:24:24;;;;;;;0.17;0.15;;;30.20;87.00;;;;;;4397638;32;20117;-65
2023/05/21 12:26:50;;;;;;;0.65;0.50;;;30.30;86.70;;;;;;4396535;32;20162;-65
2023/05/21 12:29:16;;;;;;;1.95;1.00;;;30.60;85.30;;;;;;4396861;32;20097;-65
2023/05/21 12:31:49;;;;;;;0.35;0.35;;;30.90;85.50;;;;;;4397408;32;20086;-64
2023/05/21 12:34:17;;;;;;;0.68;0.50;;;31.30;85.00;;;;;;4397038;32;20245;-65
2023/05/21 12:36:47;;;;;;;1.73;1.25;;;31.00;82.60;;;;;;4396777;32;20148;-65
2023/05/21 12:39:13;;;;;;;0.37;0.30;;;30.70;84.10;;;;;;4397583;32;20442;-65
2023/05/21 12:41:38;;;;;;;2.45;1.17;;;30.90;83.80;;;;;;4395270;32;20647;-65
2023/05/21 12:44:04;;;;;;;0.20;0.20;;;31.20;83.80;;;;;;4396396;32;20151;-65
2023/05/21 12:46:30;;;;;;;3.05;0.57;;;31.60;82.50;;;;;;4395973;32;21848;-66